Date,TemperatureHighF,TemperatureAvgF,TemperatureLowF,DewpointHighF,DewpointAvgF,DewpointLowF,HumidityHigh,HumidityAvg,HumidityLow,PressureMaxIn,PressureMinIn,WindSpeedMaxMPH,WindSpeedAvgMPH,GustSpeedMaxMPH,PrecipitationSumIn
2013-1-1,55.9,46.5,37.5,55.9,44.3,32.2,100,92,81,30.25,29.93,7,2,13,0.10
2013-1-2,41.6,35.2,27.6,32.2,28.6,24.8,89,77,60,30.35,30.24,6,1,11,0.01
2013-1-3,42.6,36.6,27.2,31.4,29.0,24.7,93,74,62,30.48,30.33,3,0,7,0.00
2013-1-4,40.5,37.4,33.4,39.2,36.3,29.7,100,96,65,30.53,30.38,5,1,8,0.31
2013-1-5,54.7,41.6,34.4,43.7,38.9,32.9,100,91,63,30.39,30.21,3,0,7,0.01
2013-1-6,56.9,41.1,31.3,37.6,33.2,28.4,100,77,36,30.41,30.27,8,2,14,0.01
2013-1-7,54.4,41.1,28.2,39.3,33.1,26.2,95,75,49,30.33,30.04,6,1,7,0.00
2013-1-8,50.7,48.0,45.2,50.7,47.4,39.3,100,98,76,30.05,29.86,6,2,13,1.26
2013-1-9,56.9,53.6,49.4,56.9,53.6,49.4,100,100,100,30.00,29.81,12,2,17,1.57
2013-1-10,62.7,49.9,43.6,51.4,45.5,42.4,100,87,52,30.02,29.94,8,1,18,0.01
2013-1-11,71.3,58.6,43.2,65.3,53.3,41.9,100,83,58,29.98,29.76,9,4,18,0.00
2013-1-12,72.3,64.2,44.5,68.1,60.0,34.6,100,87,59,29.86,29.60,10,4,21,0.03
2013-1-13,50.2,41.3,34.4,34.7,29.1,23.8,73,62,49,30.19,29.86,11,5,19,0.00
2013-1-14,49.8,38.1,31.3,31.0,26.4,21.5,71,63,46,30.27,30.09,11,3,17,0.00
2013-1-15,39.1,34.2,30.9,33.7,31.0,23.7,100,88,68,30.27,30.10,9,4,14,0.05
2013-1-16,50.8,36.3,28.1,26.5,21.5,14.8,76,58,27,30.36,30.18,5,2,14,0.00
2013-1-17,63.2,45.5,32.4,38.3,31.4,23.8,82,60,31,30.49,30.29,4,1,10,0.00
2013-1-18,64.8,44.6,30.1,35.5,31.9,27.5,96,66,28,30.52,30.29,3,0,9,0.00
2013-1-19,67.6,49.9,39.5,47.0,41.5,34.1,100,75,41,30.29,30.12,9,2,14,0.00
2013-1-20,73.9,56.0,43.8,51.3,44.5,39.4,100,70,32,30.22,30.04,5,2,12,0.00
2013-1-21,70.1,54.4,41.9,51.9,46.1,39.1,100,75,46,30.22,30.08,5,1,6,0.00
2013-1-22,71.3,52.8,38.5,50.6,43.9,36.3,94,74,46,30.29,30.17,7,1,14,0.00
2013-1-23,73.9,58.7,47.9,57.8,52.0,46.1,100,81,53,30.30,30.16,8,2,14,0.00
2013-1-24,78.3,65.8,59.0,60.7,58.3,56.1,96,79,51,30.20,30.05,9,4,14,0.00
2013-1-25,79.9,65.6,54.4,61.2,57.6,48.7,94,77,48,30.10,29.97,7,3,13,0.00
2013-1-26,62.4,54.4,49.2,59.5,52.3,46.6,100,93,80,30.17,30.03,4,0,7,0.02
2013-1-27,76.7,66.1,59.8,63.6,60.8,57.5,100,84,59,30.06,29.89,8,5,19,0.00
2013-1-28,75.3,69.3,66.4,65.5,63.9,62.8,92,83,67,29.97,29.80,9,4,20,0.00
2013-1-29,79.0,67.1,52.9,66.8,55.1,22.5,100,68,31,29.81,29.45,10,4,22,0.02
2013-1-30,57.5,47.9,32.9,28.5,21.0,13.9,61,36,21,30.22,29.75,12,4,26,0.00
2013-1-31,68.6,48.0,32.9,27.6,22.3,17.2,65,41,15,30.29,30.15,9,2,14,0.00
2013-2-1,70.6,54.5,36.8,42.3,34.5,25.0,80,49,26,30.35,30.15,7,2,14,0.00
2013-2-2,77.4,58.6,44.8,53.0,45.7,39.7,92,65,34,30.26,30.13,8,2,14,0.00
2013-2-3,71.3,56.6,39.3,46.7,37.4,25.3,83,52,20,30.33,29.97,7,2,12,0.00
2013-2-4,74.6,61.1,53.6,57.6,53.6,46.5,92,78,51,29.97,29.75,7,3,13,0.00
2013-2-5,77.7,59.7,47.7,51.3,46.1,38.8,94,65,25,29.96,29.83,5,1,11,0.00
2013-2-6,75.6,62.6,56.6,59.0,56.2,48.3,100,81,55,29.97,29.78,5,2,10,0.04
2013-2-7,83.6,65.8,57.3,60.5,51.8,36.4,100,66,29,30.05,29.79,7,2,13,0.01
2013-2-8,68.6,54.0,44.6,45.4,34.2,22.5,74,51,20,30.22,30.04,6,1,12,0.00
2013-2-9,66.3,56.5,46.8,66.3,54.2,33.6,100,92,59,30.07,29.73,7,3,20,0.02
2013-2-10,66.9,58.4,49.6,66.8,46.8,28.6,100,70,29,29.99,29.69,8,2,21,0.21
2013-2-11,56.3,52.3,48.6,47.6,43.1,35.4,96,72,51,30.07,29.95,7,2,11,0.04
2013-2-12,67.8,55.7,45.5,58.6,45.4,25.8,100,74,28,30.05,29.78,7,2,17,0.04
2013-2-13,60.9,45.2,36.3,37.1,32.6,26.3,85,64,28,30.15,30.02,10,2,18,0.00
2013-2-14,71.3,52.3,35.3,39.7,34.7,30.3,89,57,23,30.13,29.96,5,1,11,0.00
2013-2-15,60.5,48.2,35.2,38.8,34.6,24.2,86,60,41,30.39,30.03,9,3,17,0.00
2013-2-16,65.6,46.4,31.9,32.0,26.1,21.4,70,48,22,30.47,30.19,4,1,12,0.00
2013-2-17,70.1,56.3,43.5,49.7,34.8,24.8,73,46,27,30.19,29.92,7,4,17,0.01
2013-2-18,80.7,65.2,54.2,57.9,44.6,22.9,83,54,17,30.05,29.77,10,4,19,0.00
2013-2-19,67.8,55.4,41.1,33.1,28.4,20.2,67,38,18,30.24,30.03,8,2,14,0.00
2013-2-20,64.2,55.1,50.8,64.2,46.5,28.8,100,76,38,30.09,29.60,10,4,13,0.04
2013-2-21,76.0,63.9,48.0,65.6,41.8,21.4,100,53,14,29.84,29.52,11,3,20,0.01
2013-2-22,57.2,47.5,40.8,37.3,32.2,26.3,78,57,36,30.05,29.82,6,2,19,0.00
2013-2-23,71.5,50.5,35.5,36.8,31.2,27.3,73,51,25,30.06,29.85,5,1,9,0.00
2013-2-24,73.0,56.6,38.2,57.3,44.8,33.5,92,67,40,29.89,29.53,9,3,18,0.00
2013-2-25,62.3,53.4,43.6,59.8,35.2,19.8,100,55,20,29.82,29.49,17,7,34,0.01
2013-2-26,66.9,49.3,37.0,32.5,27.9,24.4,66,46,20,29.96,29.80,10,2,19,0.00
2013-2-27,62.3,50.7,39.1,33.7,25.2,-99.9,57,39,23,30.22,29.82,11,3,19,0.00
2013-2-28,61.0,45.7,35.0,28.7,24.4,19.6,63,46,21,30.33,30.16,6,1,16,0.00
2013-3-1,69.1,49.1,29.7,28.6,23.2,15.2,75,42,16,30.30,30.10,4,1,13,0.00
2013-3-2,61.0,46.5,36.6,30.1,26.8,22.8,68,49,25,30.42,30.25,7,2,19,0.00
2013-3-3,74.9,56.6,36.9,41.2,30.0,22.4,65,39,19,30.25,29.86,8,4,25,0.00
2013-3-4,89.0,67.8,53.2,51.2,43.9,39.1,80,48,18,29.86,29.64,8,5,16,0.00
2013-3-5,65.2,54.2,37.9,53.3,25.0,10.5,70,37,13,30.36,29.69,16,6,26,0.00
2013-3-6,64.0,47.2,32.8,24.3,18.2,11.2,52,34,13,30.46,30.21,3,0,11,0.00
2013-3-7,70.9,56.2,38.8,51.9,41.2,19.1,81,59,37,30.23,30.05,7,3,17,0.00
2013-3-8,63.2,59.5,55.7,63.1,56.8,50.4,100,91,75,30.11,29.96,7,3,13,0.06
2013-3-9,70.4,64.3,60.2,66.8,62.3,57.2,100,93,80,29.97,29.60,8,5,16,0.13
2013-3-10,64.0,55.9,41.9,61.9,42.5,32.1,100,64,36,30.11,29.67,10,3,26,1.00
2013-3-11,64.8,47.1,34.6,33.5,29.0,21.1,86,55,21,30.18,29.98,6,1,15,0.00
2013-3-12,79.0,57.2,40.2,38.5,31.4,24.4,67,41,17,30.22,30.03,7,2,21,0.00
2013-3-13,76.0,58.0,40.3,39.4,35.6,30.7,76,47,23,30.42,30.21,6,2,8,0.00
2013-3-14,78.3,61.2,48.8,51.8,44.0,35.9,87,57,28,30.35,30.18,7,3,17,0.00
2013-3-15,80.7,65.2,53.2,53.4,47.2,37.1,92,58,26,30.20,29.95,9,5,18,0.00
2013-3-16,84.5,68.0,56.9,59.7,53.7,48.2,90,64,29,29.95,29.68,10,5,18,0.00
2013-3-17,84.0,70.3,64.0,61.7,58.3,55.3,83,68,40,29.76,29.58,8,3,20,0.00
2013-3-18,88.0,72.2,61.2,64.0,52.1,38.5,100,58,19,29.89,29.65,7,3,18,0.00
2013-3-19,85.1,64.9,45.1,62.0,51.4,40.8,91,63,37,29.96,29.79,6,2,13,0.45
2013-3-20,71.5,58.3,49.6,54.7,45.1,34.3,100,67,27,30.22,29.95,11,2,19,0.05
2013-3-21,73.9,62.3,48.9,58.8,50.8,37.5,84,67,52,30.00,29.56,9,4,20,0.00
2013-3-22,87.4,70.8,57.0,64.4,60.0,47.1,95,71,39,29.72,29.56,8,4,12,0.02
2013-3-23,81.4,60.7,49.4,59.4,51.0,45.4,95,73,39,29.77,29.54,5,2,11,0.00
2013-3-24,59.5,50.2,40.3,57.2,30.8,19.7,94,51,24,30.15,29.66,13,5,21,0.00
2013-3-25,59.8,45.0,33.5,25.9,20.4,13.4,64,41,17,30.38,30.15,7,1,16,0.00
2013-3-26,66.6,47.2,27.5,24.8,20.8,16.3,74,40,15,30.49,30.27,4,1,7,0.00
2013-3-27,67.6,54.0,37.6,46.0,36.1,21.0,71,52,36,30.30,30.12,8,3,20,0.00
2013-3-28,73.0,61.8,53.2,56.9,53.1,45.8,85,74,56,30.17,30.07,8,3,16,0.00
2013-3-29,76.1,66.7,59.0,57.5,55.6,54.0,90,69,47,30.13,30.00,8,4,12,0.00
2013-3-30,82.2,69.5,62.1,61.2,58.7,56.4,92,70,44,30.05,29.83,8,3,18,0.00
2013-3-31,79.9,68.0,58.1,65.2,60.6,54.7,92,78,51,29.92,29.81,7,2,13,0.12
2013-4-1,85.5,69.4,55.3,62.6,58.9,54.6,100,73,40,30.01,29.83,4,1,12,0.00
2013-4-2,76.7,65.4,51.3,64.8,61.7,51.3,100,89,64,29.95,29.78,13,2,22,2.80
2013-4-3,54.2,50.3,46.8,54.2,50.3,46.8,100,100,100,30.14,29.80,8,2,18,0.48
2013-4-4,58.3,48.7,43.2,46.8,43.4,39.9,100,83,59,30.23,30.08,8,2,17,0.00
2013-4-5,73.7,54.2,35.6,48.9,42.7,34.3,100,69,36,30.27,30.02,3,1,7,0.00
2013-4-6,79.8,64.1,49.8,56.3,51.8,44.6,92,67,43,30.02,29.80,8,4,17,0.00
2013-4-7,83.0,67.6,60.4,63.2,59.3,55.7,89,76,49,29.87,29.68,7,5,14,0.00
2013-4-8,71.8,67.5,64.7,66.2,62.8,58.8,94,85,77,29.77,29.61,8,4,18,0.00
2013-4-9,84.7,72.7,67.6,67.9,65.2,63.1,92,78,53,29.65,29.51,8,4,16,0.00
2013-4-10,72.1,54.1,42.6,67.3,50.0,39.7,100,87,69,29.96,29.55,10,5,19,0.25
2013-4-11,67.6,52.4,41.8,43.2,38.7,34.0,89,62,33,29.97,29.76,10,2,24,0.03
2013-4-12,80.9,60.1,41.2,49.4,41.9,38.3,95,58,22,29.98,29.81,6,2,13,0.00
2013-4-13,76.8,63.7,52.3,56.4,50.4,44.6,96,64,34,29.92,29.74,6,2,10,0.00
2013-4-14,88.2,70.8,56.7,65.0,59.2,53.0,94,70,40,29.76,29.53,8,3,16,0.00
2013-4-15,90.1,75.9,67.9,66.3,64.2,61.4,93,70,40,29.73,29.61,8,5,17,0.00
2013-4-16,86.1,74.8,65.8,68.8,64.4,61.1,91,72,51,29.82,29.72,8,4,17,0.00
2013-4-17,81.6,74.0,70.9,71.6,68.5,65.9,100,84,60,29.80,29.60,7,4,17,0.01
2013-4-18,73.2,60.3,48.2,70.2,51.2,35.2,95,73,48,30.11,29.58,13,6,26,0.12
2013-4-19,68.8,52.9,41.2,35.6,30.8,23.6,71,47,20,30.29,30.09,9,3,20,0.00
2013-4-20,73.2,56.3,39.6,45.1,31.7,26.4,73,44,18,30.22,29.95,6,2,13,0.01
2013-4-21,79.6,62.7,44.2,54.7,49.4,41.3,93,65,38,30.11,29.96,6,3,11,0.00
2013-4-22,83.2,69.0,54.1,60.0,56.3,52.5,99,67,42,30.05,29.81,7,3,14,0.00
2013-4-23,77.7,63.7,48.3,64.0,55.5,39.6,89,75,53,30.09,29.77,8,4,16,0.00
2013-4-24,64.3,51.5,42.3,40.1,36.0,31.0,84,58,34,30.26,30.09,12,5,19,0.00
2013-4-25,68.4,59.2,53.5,44.8,41.3,38.5,63,52,34,30.31,30.14,7,2,10,0.00
2013-4-26,74.6,66.0,56.6,69.6,61.8,41.3,100,87,51,30.15,29.97,6,1,13,0.03
2013-4-27,86.3,72.9,66.3,70.0,65.3,61.2,96,79,45,30.03,29.86,5,1,12,0.01
2013-4-28,85.9,72.5,58.1,64.7,59.7,53.9,100,68,38,29.97,29.79,5,1,11,0.02
2013-4-29,84.7,71.1,64.5,70.8,62.8,58.2,94,77,43,29.87,29.71,7,2,14,0.16
2013-4-30,84.1,72.2,63.9,65.0,62.3,59.6,95,74,48,29.78,29.65,7,2,10,0.00
2013-5-1,87.4,75.1,65.6,65.9,64.2,62.6,94,71,45,29.88,29.71,6,2,12,0.00
2013-5-2,73.2,52.5,45.2,63.8,47.5,34.8,100,83,64,30.34,29.81,15,8,29,0.38
2013-5-3,67.3,52.1,41.2,36.5,32.3,25.2,73,51,23,30.34,30.06,13,5,24,0.00
2013-5-4,83.4,61.7,39.6,44.6,35.1,29.6,77,43,15,30.07,29.83,6,1,18,0.00
2013-5-5,76.0,60.9,47.1,47.8,41.4,34.4,73,50,33,30.13,29.94,5,1,11,0.00
2013-5-6,73.3,59.7,45.1,51.8,45.7,41.2,91,63,35,30.12,29.97,1,0,3,0.00
2013-5-7,85.9,67.6,48.6,54.3,48.6,44.9,99,57,26,30.06,29.88,6,1,11,0.00
2013-5-8,80.7,71.1,61.2,62.7,59.6,52.0,90,68,53,29.96,29.81,7,3,14,0.00
2013-5-9,76.7,68.8,63.7,68.4,64.4,60.7,98,86,71,29.93,29.77,6,2,12,0.05
2013-5-10,87.8,68.8,58.6,66.0,61.5,53.4,100,81,35,30.01,29.78,10,2,20,1.30
2013-5-11,78.1,66.8,59.0,63.1,57.4,50.6,100,75,42,30.11,29.96,7,2,17,0.00
2013-5-12,80.7,64.9,53.3,57.0,50.6,44.6,86,63,33,30.24,30.08,4,1,12,0.00
2013-5-13,86.5,67.4,48.2,54.6,48.4,43.2,94,56,24,30.23,30.10,5,1,13,0.00
2013-5-14,85.3,72.2,59.6,64.8,58.9,54.7,89,65,40,30.17,29.94,7,3,16,0.00
2013-5-15,83.8,72.6,63.5,71.5,67.1,61.8,100,84,59,30.02,29.75,7,3,21,0.61
2013-5-16,90.5,76.4,68.3,71.0,68.8,66.2,100,80,48,29.80,29.63,7,3,16,0.08
2013-5-17,92.1,80.8,72.1,72.0,69.5,67.2,89,70,47,29.82,29.70,7,3,13,0.00
2013-5-18,93.6,79.8,69.8,69.6,65.8,61.0,92,65,39,29.84,29.73,8,4,18,0.00
2013-5-19,90.5,79.1,70.8,69.6,66.8,62.6,86,68,49,29.78,29.65,7,4,18,0.00
2013-5-20,92.5,79.8,71.3,69.3,67.4,64.2,88,68,43,29.76,29.61,8,4,19,0.00
2013-5-21,87.6,76.9,68.3,73.8,67.8,56.6,87,74,56,29.83,29.64,9,4,17,0.00
2013-5-22,93.8,76.3,56.0,70.1,58.6,50.5,93,59,27,29.88,29.74,5,1,8,0.00
2013-5-23,86.7,78.5,72.7,70.2,69.1,68.0,91,74,56,29.97,29.80,6,2,14,0.00
2013-5-24,80.3,71.8,66.9,70.9,68.7,65.5,100,90,70,30.07,29.93,7,2,10,1.26
2013-5-25,79.6,72.0,67.4,72.0,69.3,65.2,100,92,65,30.09,29.97,7,3,12,0.68
2013-5-26,84.0,75.9,70.8,71.7,69.2,66.3,100,81,62,30.03,29.91,7,3,16,0.00
2013-5-27,87.2,76.4,69.9,70.2,68.0,65.6,92,76,55,29.96,29.77,7,3,19,0.00
2013-5-28,88.0,77.7,70.9,69.6,67.4,65.7,86,72,51,29.83,29.69,8,4,18,0.00
2013-5-29,84.9,76.3,72.0,71.3,68.7,66.6,87,78,59,29.81,29.64,9,4,20,0.01
2013-5-30,88.8,78.9,73.2,71.0,69.4,68.2,87,74,55,29.77,29.67,7,3,16,0.00
2013-5-31,88.8,80.2,74.4,72.9,70.6,68.6,87,74,57,29.81,29.67,6,3,16,0.00
2013-6-1,95.6,82.6,74.4,72.2,70.2,68.0,86,68,42,29.83,29.71,7,3,20,0.00
2013-6-2,85.3,74.2,65.2,72.3,65.5,57.6,100,77,41,30.01,29.83,7,1,14,2.01
2013-6-3,92.1,75.1,59.9,66.6,62.2,56.2,100,69,33,29.94,29.78,3,0,7,0.00
2013-6-4,91.4,79.6,68.4,67.7,64.5,59.6,94,63,39,29.85,29.73,6,2,12,0.00
2013-6-5,92.7,79.6,68.6,68.6,65.9,62.4,94,66,38,29.82,29.67,7,2,14,0.00
2013-6-6,93.8,79.7,67.6,70.6,65.2,60.2,100,65,34,29.87,29.71,6,1,12,0.00
2013-6-7,84.0,73.9,62.6,64.5,60.0,52.2,86,64,36,29.96,29.83,4,1,10,0.00
2013-6-8,87.6,74.4,57.8,68.7,61.1,53.8,92,66,45,29.89,29.73,7,1,15,0.00
2013-6-9,89.3,77.8,67.1,73.2,69.4,64.6,100,77,56,29.93,29.76,6,2,11,0.29
2013-6-10,95.4,80.4,68.4,72.4,67.4,61.0,100,69,33,29.94,29.84,5,1,12,0.00
2013-6-11,92.5,80.2,72.5,70.9,68.5,61.6,93,70,43,29.97,29.88,5,1,17,0.00
2013-6-12,94.0,81.0,71.8,71.5,69.5,67.2,90,70,43,29.99,29.87,6,2,12,0.00
2013-6-13,96.1,79.9,73.7,72.5,69.4,63.5,92,73,40,30.00,29.88,6,1,11,0.00
2013-6-14,88.8,79.3,73.2,72.7,70.8,68.7,91,76,56,29.94,29.84,4,1,8,0.00
2013-6-15,85.3,79.3,73.0,74.0,71.3,69.2,92,77,61,29.93,29.83,4,1,10,0.00
2013-6-16,94.0,82.6,72.5,71.6,68.3,63.0,92,65,38,29.96,29.82,6,2,11,0.00
2013-6-17,95.1,83.0,74.0,71.6,68.2,62.1,86,64,36,29.95,29.78,5,2,13,0.00
2013-6-18,93.6,79.7,69.1,74.7,69.7,64.1,100,74,39,29.96,29.82,6,1,8,0.11
2013-6-19,96.3,83.1,73.2,70.6,67.7,63.4,90,63,38,29.91,29.82,7,1,17,0.00
2013-6-20,95.4,83.1,72.5,70.2,66.6,60.8,89,61,34,29.99,29.87,7,4,16,0.00
2013-6-21,94.5,83.5,74.2,70.9,66.1,57.2,89,60,31,30.01,29.89,7,3,13,0.00
2013-6-22,95.6,83.6,72.5,69.9,65.8,56.9,89,59,30,29.98,29.81,7,4,17,0.00
2013-6-23,94.9,82.7,73.7,70.2,64.5,54.5,88,58,30,29.92,29.82,8,4,16,0.00
2013-6-24,96.3,83.3,73.7,70.8,67.0,61.8,88,61,34,29.96,29.82,7,4,16,0.00
2013-6-25,97.5,84.6,75.4,70.5,66.2,58.6,84,58,28,29.94,29.78,9,5,19,0.00
2013-6-26,98.7,85.2,74.2,70.7,66.8,60.3,83,58,29,29.90,29.79,8,4,17,0.00
2013-6-27,101.7,84.7,73.5,70.3,63.5,51.5,84,55,22,29.96,29.83,6,2,14,0.00
2013-6-28,104.1,87.3,73.2,69.8,64.4,57.1,86,52,23,29.94,29.73,5,2,11,0.00
2013-6-29,105.7,89.0,71.1,67.5,60.6,53.8,73,42,20,29.81,29.67,4,1,10,0.00
2013-6-30,89.3,79.4,67.6,72.7,65.3,55.5,100,65,37,29.91,29.73,8,2,11,0.22
2013-7-1,88.8,77.0,64.0,65.4,55.1,48.5,71,49,27,29.96,29.84,7,2,20,0.00
2013-7-2,91.4,75.4,62.4,58.8,51.9,45.1,76,48,22,30.04,29.91,5,1,12,0.00
2013-7-3,94.0,76.4,59.8,58.8,49.1,42.3,84,43,18,29.99,29.84,4,0,9,0.00
2013-7-4,94.0,78.8,66.1,65.9,56.9,48.7,89,51,25,29.95,29.82,5,0,12,0.00
2013-7-5,98.0,83.8,68.9,67.4,58.7,51.3,89,47,21,29.94,29.76,5,1,13,0.00
2013-7-6,97.3,82.8,67.8,69.9,62.7,55.0,93,55,27,29.87,29.74,7,2,11,0.00
2013-7-7,98.2,83.0,71.1,71.6,67.6,61.1,91,63,30,29.91,29.80,8,2,12,0.00
2013-7-8,86.5,78.3,73.2,74.9,70.6,66.0,100,78,53,30.04,29.90,6,1,19,0.07
2013-7-9,98.5,84.0,71.5,73.9,68.0,61.6,100,64,31,30.09,29.92,4,2,12,0.00
2013-7-10,99.7,85.4,71.6,73.0,67.1,59.5,100,59,29,30.03,29.85,5,1,11,0.00
2013-7-11,99.9,85.3,73.3,71.7,65.1,57.1,87,55,27,29.93,29.80,6,1,13,0.00
2013-7-12,101.5,86.3,72.5,70.1,62.8,55.9,84,50,23,29.91,29.80,6,1,11,0.00
2013-7-13,103.6,87.7,73.0,66.7,60.5,53.8,73,44,20,29.92,29.76,4,1,9,0.00
2013-7-14,98.5,82.4,71.8,67.9,62.8,55.8,75,54,25,29.87,29.78,8,2,15,0.00
2013-7-15,76.1,71.3,69.3,73.5,69.9,65.9,100,96,71,29.98,29.81,5,1,7,1.67
2013-7-16,85.5,75.5,70.3,77.0,71.1,67.6,100,87,61,30.08,29.96,7,2,12,0.09
2013-7-17,85.7,73.8,69.4,75.4,71.3,68.2,100,93,63,30.12,30.06,7,1,12,0.71
2013-7-18,92.1,77.2,69.4,76.0,69.7,63.6,100,81,42,30.12,29.94,5,1,8,0.01
2013-7-19,93.8,80.2,70.3,72.7,68.1,61.8,100,71,38,30.03,29.84,8,1,8,0.00
2013-7-20,94.5,80.0,69.1,73.2,68.2,61.4,100,71,38,29.93,29.78,7,2,13,0.00
2013-7-21,93.2,80.9,70.9,77.7,71.3,67.6,100,75,44,29.89,29.80,6,2,13,0.02
2013-7-22,94.3,83.5,75.6,72.8,70.8,67.1,89,68,44,29.93,29.81,6,3,14,0.00
2013-7-23,96.1,84.0,75.3,73.0,68.5,60.1,85,63,35,29.94,29.80,6,3,16,0.00
2013-7-24,94.9,83.0,73.5,72.9,70.2,65.4,90,68,41,29.94,29.81,8,2,14,0.00
2013-7-25,98.2,84.5,73.3,71.6,67.4,58.8,91,60,33,29.95,29.88,3,1,11,0.00
2013-7-26,99.0,85.1,73.9,74.0,68.7,63.9,89,61,34,29.96,29.79,7,2,13,0.00
2013-7-27,85.5,76.9,69.1,75.8,71.9,66.6,100,86,59,29.94,29.83,6,1,12,1.48
2013-7-28,94.0,80.3,68.6,74.0,69.9,66.5,100,74,46,29.90,29.77,4,1,10,0.00
2013-7-29,96.6,83.9,75.1,72.7,68.2,60.1,87,63,33,29.95,29.85,7,3,17,0.00
2013-7-30,96.8,84.2,74.4,71.6,68.1,60.6,88,62,31,30.03,29.89,5,2,13,0.00
2013-7-31,101.2,84.0,72.7,70.6,65.3,56.7,92,59,24,30.02,29.86,5,1,10,0.00
2013-8-1,102.0,86.7,74.4,69.9,65.7,60.9,79,53,27,29.97,29.82,5,1,10,0.00
2013-8-2,99.2,85.9,74.6,68.1,63.9,58.9,71,50,27,29.92,29.80,4,1,11,0.00
2013-8-3,98.7,85.4,74.6,71.2,66.8,59.5,87,57,31,29.95,29.85,5,2,12,0.00
2013-8-4,96.3,85.0,74.0,72.5,69.1,64.3,91,62,38,30.01,29.85,5,2,10,0.00
2013-8-5,100.7,85.8,72.7,70.8,66.1,58.7,88,56,27,29.97,29.79,6,2,13,0.00
2013-8-6,101.5,86.4,73.2,71.6,66.9,55.9,88,57,27,29.89,29.73,8,3,16,0.00
2013-8-7,103.1,87.1,75.1,72.1,66.8,54.4,84,56,25,29.86,29.70,8,2,17,0.00
2013-8-8,101.5,86.4,73.9,70.7,65.1,53.7,86,54,25,29.83,29.70,4,2,11,0.00
2013-8-9,101.7,84.5,71.8,72.8,62.7,49.3,100,55,19,29.90,29.78,5,1,12,0.00
2013-8-10,102.0,86.4,72.8,69.6,66.1,55.6,83,55,24,29.98,29.86,7,1,14,0.00
2013-8-11,99.2,83.1,73.9,76.6,68.3,60.4,87,65,31,30.02,29.88,6,0,11,0.13
2013-8-12,97.8,83.1,70.1,73.2,67.0,61.1,100,63,32,30.01,29.87,5,1,11,0.01
2013-8-13,100.7,86.3,74.6,71.0,65.3,57.6,87,54,26,29.98,29.81,4,1,10,0.00
2013-8-14,104.1,84.1,75.4,70.7,67.2,60.2,80,59,25,29.93,29.80,6,2,14,0.00
2013-8-15,95.4,79.4,70.9,75.0,70.5,67.3,100,77,44,29.97,29.84,9,0,13,0.55
2013-8-16,89.7,76.8,69.1,75.8,68.9,62.2,100,80,45,30.01,29.86,5,0,12,0.01
2013-8-17,93.2,77.7,66.8,69.6,63.6,56.5,100,66,31,30.01,29.87,5,1,13,0.00
2013-8-18,95.6,77.6,62.0,66.4,58.7,53.7,92,57,26,30.00,29.91,6,1,11,0.00
2013-8-19,94.0,79.6,66.4,64.9,60.3,56.8,89,55,31,30.00,29.86,5,0,8,0.00
2013-8-20,96.1,80.9,67.1,69.9,62.4,53.8,100,58,27,29.97,29.87,5,1,14,0.00
2013-8-21,95.6,81.0,70.6,71.2,67.1,62.0,91,66,35,30.03,29.89,4,1,10,0.00
2013-8-22,96.1,82.8,69.1,73.9,67.4,64.2,100,63,36,30.03,29.85,4,0,7,0.00
2013-8-23,97.3,84.2,69.8,73.6,65.7,60.0,100,58,31,29.96,29.82,4,0,12,0.00
2013-8-24,100.2,85.5,71.8,69.2,65.6,60.3,87,55,28,29.98,29.86,6,1,11,0.00
2013-8-25,95.9,82.8,69.8,69.8,67.0,63.8,90,62,36,30.02,29.94,8,2,14,0.00
2013-8-26,90.5,78.4,71.3,71.1,68.9,66.2,93,74,46,30.07,29.95,6,2,11,0.01
2013-8-27,84.5,76.1,71.8,75.6,70.0,61.1,100,83,48,30.07,29.96,5,1,13,0.07
2013-8-28,95.9,81.2,71.3,74.9,67.5,62.2,100,68,35,30.06,29.93,3,1,10,0.00
2013-8-29,100.7,84.2,72.7,69.2,64.0,57.1,86,55,27,30.03,29.88,2,0,6,0.00
2013-8-30,103.1,86.6,74.6,66.1,61.7,56.1,69,47,23,29.96,29.80,4,1,11,0.00
2013-8-31,102.3,87.1,73.2,67.5,64.2,59.7,77,50,27,29.88,29.73,5,1,10,0.00
2013-9-1,101.0,86.3,73.2,70.0,64.7,59.8,82,52,27,29.85,29.73,4,1,12,0.00
2013-9-2,100.7,83.8,72.5,73.2,67.3,59.3,100,62,27,29.91,29.76,4,1,9,0.02
2013-9-3,102.3,82.7,67.9,72.8,65.8,58.3,100,64,25,29.95,29.80,3,0,8,0.00
2013-9-4,101.0,83.3,73.7,76.7,66.8,61.2,91,61,28,29.98,29.85,6,0,11,0.03
2013-9-5,98.2,82.3,69.4,73.2,66.4,60.3,100,63,29,30.04,29.92,4,1,10,0.00
2013-9-6,97.1,83.0,71.1,70.7,67.0,60.6,93,62,32,30.03,29.88,5,1,8,0.00
2013-9-7,97.5,79.8,70.1,74.4,68.5,60.6,100,74,31,29.97,29.82,11,1,16,0.13
2013-9-8,93.8,77.5,68.6,74.9,69.4,64.2,100,79,39,29.94,29.82,5,1,11,0.01
2013-9-9,92.5,75.5,68.8,76.9,69.8,64.5,100,85,41,29.94,29.85,7,1,13,0.36
2013-9-10,91.4,76.9,69.6,75.4,70.4,67.2,100,83,46,30.01,29.91,7,2,13,0.00
2013-9-11,77.6,76.7,76.0,67.2,67.0,66.6,74,72,69,29.98,29.97,1,1,3,0.00
2013-9-12,94.7,80.1,66.3,73.3,65.2,56.7,100,65,29,30.01,29.85,6,1,11,0.00
2013-9-13,96.6,82.2,69.3,69.3,62.5,55.8,93,56,28,29.91,29.75,8,1,12,0.00
2013-9-14,95.9,82.0,66.9,68.6,62.6,55.7,86,55,30,29.88,29.77,6,2,14,0.00
2013-9-15,91.6,80.3,68.4,72.2,66.8,63.2,100,66,40,29.95,29.84,7,2,11,0.00
2013-9-16,89.9,78.7,70.8,74.4,69.5,66.2,100,75,48,30.00,29.90,7,2,10,0.06
2013-9-17,91.6,78.6,70.1,76.3,70.1,65.8,100,78,44,30.00,29.86,6,1,8,0.00
2013-9-18,94.9,80.3,70.4,74.9,67.7,60.8,100,70,34,29.96,29.81,7,2,11,0.00
2013-9-19,91.8,79.4,73.5,75.1,71.3,67.9,100,79,46,29.90,29.74,9,2,20,0.46
2013-9-20,76.7,72.9,69.3,76.7,72.9,69.3,100,100,100,29.82,29.72,7,2,14,1.52
2013-9-21,82.2,70.0,58.0,69.3,60.4,50.0,100,75,35,29.90,29.78,9,3,14,0.01
2013-9-22,83.8,66.7,55.1,55.8,50.6,43.3,85,60,27,29.88,29.74,4,1,10,0.00
2013-9-23,90.3,69.0,52.6,56.1,52.1,48.4,96,61,26,29.82,29.70,3,0,7,0.00
2013-9-24,93.6,74.8,61.6,62.1,56.8,53.0,80,58,28,29.88,29.77,5,0,7,0.00
2013-9-25,95.4,77.8,62.1,63.4,58.8,56.2,89,57,28,29.85,29.72,4,1,9,0.00
2013-9-26,91.8,79.0,68.6,70.9,60.4,51.6,82,56,27,29.83,29.74,7,3,13,0.00
2013-9-27,89.7,78.7,73.2,75.2,72.0,69.9,92,81,56,29.85,29.75,8,3,15,0.00
2013-9-28,89.7,78.2,72.3,76.3,73.2,69.4,100,86,52,29.92,29.80,6,2,19,0.27
2013-9-29,72.1,66.6,62.0,72.0,65.0,62.0,100,95,77,30.02,29.89,5,2,11,0.65
2013-9-30,88.6,70.8,59.8,63.4,58.9,50.6,100,72,28,29.93,29.75,4,0,7,0.00
2013-10-1,89.0,75.4,62.7,72.5,67.3,55.8,100,78,47,29.88,29.77,5,1,11,0.00
2013-10-2,90.1,78.7,73.3,72.3,70.2,66.8,93,77,48,29.91,29.78,5,2,13,0.00
2013-10-3,89.9,79.6,73.0,71.8,69.4,65.5,95,73,46,29.88,29.76,6,2,12,0.00
2013-10-4,89.5,78.6,71.6,69.9,68.4,65.7,92,73,47,29.85,29.76,8,3,17,0.00
2013-10-5,89.5,73.2,59.5,71.8,61.4,39.9,100,69,42,30.03,29.80,11,3,17,0.00
2013-10-6,77.7,61.2,51.3,55.1,47.1,35.1,100,66,22,30.12,29.99,6,1,10,0.45
2013-10-7,84.0,63.2,48.8,50.3,44.0,35.2,80,55,21,30.16,30.00,2,0,6,0.00
2013-10-8,85.5,65.8,50.4,51.5,46.9,43.1,83,56,24,30.07,29.94,5,0,9,0.00
2013-10-9,83.2,68.3,56.0,59.9,55.2,46.8,95,65,39,30.02,29.91,6,2,10,0.00
2013-10-10,84.1,71.2,59.9,65.3,62.1,58.1,100,75,48,30.00,29.83,7,2,15,0.00
2013-10-11,85.9,76.2,69.3,72.2,69.1,64.2,92,80,57,29.90,29.76,6,3,12,0.00
2013-10-12,90.5,79.2,73.9,74.9,71.5,68.2,100,79,51,29.95,29.83,6,2,13,0.01
2013-10-13,74.6,69.3,65.0,71.6,68.8,65.0,100,98,84,30.11,29.95,9,2,13,5.22
2013-10-14,77.7,72.5,70.1,75.8,71.0,69.6,100,96,81,30.05,29.86,4,1,8,0.15
2013-10-15,80.1,71.3,56.0,71.3,67.4,55.0,100,88,62,29.97,29.82,9,2,21,0.02
2013-10-16,58.9,55.5,52.3,58.6,55.2,52.3,100,99,88,30.06,29.92,7,2,12,1.04
2013-10-17,72.7,57.8,47.3,54.3,50.2,47.3,100,78,44,30.12,29.95,3,0,10,0.00
2013-10-18,68.9,61.8,51.9,63.3,57.3,49.6,97,85,74,29.98,29.85,4,1,7,0.00
2013-10-19,65.2,53.5,42.9,63.0,44.3,36.8,99,74,39,30.19,29.96,10,3,18,0.02
2013-10-20,74.0,55.4,40.6,50.8,44.8,39.5,100,72,39,30.09,29.89,4,1,11,0.00
2013-10-21,80.5,65.9,55.9,66.3,59.6,48.0,96,80,60,30.03,29.85,6,2,12,0.00
2013-10-22,74.2,59.2,48.6,53.7,45.4,37.4,89,65,27,30.15,30.03,7,2,12,0.00
2013-10-23,82.8,62.2,48.8,47.6,43.3,38.4,82,55,21,30.16,30.05,3,0,7,0.00
2013-10-24,82.2,63.3,51.7,50.9,46.1,42.3,80,58,26,30.20,30.08,5,1,9,0.00
2013-10-25,76.5,63.6,51.0,60.3,55.6,48.8,100,77,53,30.29,30.16,5,1,12,0.00
2013-10-26,77.9,67.7,62.3,66.3,61.7,58.9,96,82,59,30.17,30.01,5,2,12,0.04
2013-10-27,71.1,65.1,61.6,64.5,62.6,59.9,100,92,75,30.08,29.97,6,1,7,0.56
2013-10-28,79.6,70.3,63.1,69.6,65.5,62.8,100,86,60,30.03,29.92,6,2,12,0.00
2013-10-29,80.1,73.4,68.4,68.9,67.0,65.4,92,81,64,30.02,29.91,6,3,13,0.00
2013-10-30,79.0,73.8,70.1,74.6,71.5,67.0,100,93,76,29.98,29.74,6,2,11,1.70
2013-10-31,77.0,66.7,49.1,70.6,57.6,39.7,100,78,27,29.87,29.69,7,1,16,0.50
2013-11-1,81.6,62.6,48.0,55.5,45.7,37.3,88,59,21,30.05,29.80,7,2,14,0.00
2013-11-2,70.8,57.4,44.5,46.2,40.4,32.3,83,57,25,30.28,30.05,5,1,12,0.00
2013-11-3,68.9,53.9,40.3,51.1,41.2,36.4,93,66,32,30.21,29.97,5,1,11,0.00
2013-11-4,64.0,60.3,56.9,62.9,57.9,50.9,100,92,77,30.03,29.93,4,1,11,0.05
2013-11-5,77.2,68.7,62.9,69.3,65.9,62.9,100,91,65,29.97,29.85,6,2,11,0.00
2013-11-6,69.9,57.9,47.9,68.6,54.5,41.1,100,89,67,30.33,29.92,9,2,14,0.62
2013-11-7,62.1,50.1,39.8,45.1,39.4,34.4,88,69,39,30.47,30.33,8,1,12,0.00
2013-11-8,63.7,53.4,46.0,45.5,42.1,35.3,90,68,35,30.38,30.14,3,0,6,0.00
2013-11-9,67.4,58.5,51.9,57.0,51.6,42.7,91,78,65,30.17,30.08,5,1,11,0.00
2013-11-10,66.3,61.3,58.1,57.3,56.1,54.9,94,83,68,30.28,30.14,3,1,6,0.00
2013-11-11,76.0,59.2,47.7,56.7,52.3,46.8,100,81,47,30.26,30.12,2,0,8,0.00
2013-11-12,56.6,50.1,38.9,54.0,43.5,24.5,100,79,53,30.64,30.22,12,4,21,0.00
2013-11-13,54.5,38.7,30.7,31.6,26.6,23.0,87,64,34,30.67,30.41,6,1,10,0.00
2013-11-14,60.7,46.0,29.3,47.3,34.0,24.9,89,65,35,30.40,30.01,5,1,11,0.00
2013-11-15,77.7,61.3,45.8,58.2,52.8,43.9,100,76,48,30.00,29.82,7,2,15,0.00
2013-11-16,77.2,70.0,61.6,69.2,64.2,58.3,93,83,65,29.84,29.68,10,5,16,0.00
2013-11-17,87.4,73.3,62.0,69.5,64.0,53.1,96,76,32,29.90,29.71,7,2,11,0.00
2013-11-18,71.8,63.7,57.3,62.6,54.3,47.2,99,72,59,30.07,29.90,5,1,7,0.00
2013-11-19,71.5,59.8,48.9,52.1,46.8,41.8,84,64,37,30.12,29.95,5,2,8,0.00
2013-11-20,72.1,62.0,56.2,65.2,56.0,47.4,100,81,66,29.98,29.85,5,2,11,0.00
2013-11-21,76.0,70.6,65.3,70.9,68.3,64.9,100,93,77,29.99,29.87,6,2,12,0.03
2013-11-22,70.6,40.6,33.4,70.6,40.5,33.4,100,100,92,30.41,29.98,12,8,20,0.54
2013-11-23,39.1,36.1,33.7,39.1,36.1,33.7,100,100,100,30.49,30.39,10,6,17,0.06
2013-11-24,39.2,35.6,32.5,38.8,33.2,28.8,100,91,74,30.50,30.33,9,3,18,0.37
2013-11-25,37.9,35.3,32.2,37.9,35.1,32.2,100,99,90,30.35,30.10,6,1,12,1.23
2013-11-26,47.6,40.1,35.5,37.4,32.6,27.5,90,75,56,30.37,30.13,11,5,21,0.00
2013-11-27,49.2,36.9,29.1,29.4,25.4,18.5,87,66,32,30.51,30.35,8,2,13,0.00
2013-11-28,57.0,38.3,27.2,31.3,26.7,22.9,89,67,27,30.46,30.33,2,0,5,0.00
2013-11-29,60.5,47.1,30.3,48.4,42.1,26.3,100,84,60,30.51,30.34,3,0,10,0.00
2013-11-30,63.4,54.2,47.6,56.0,49.3,43.3,100,84,72,30.35,30.16,4,1,10,0.00
2013-12-1,69.6,60.1,50.2,59.8,55.6,50.2,100,86,65,30.17,29.88,7,2,14,0.01
2013-12-2,80.5,62.3,51.4,56.2,50.5,42.1,91,70,26,29.88,29.62,6,2,16,0.00
2013-12-3,83.2,62.5,50.4,51.2,46.7,39.8,96,62,23,29.68,29.54,6,2,10,0.00
2013-12-4,73.5,64.6,56.5,63.7,58.1,46.6,100,80,59,29.74,29.60,5,2,11,0.00
2013-12-5,65.6,42.4,29.7,65.6,37.4,24.0,100,83,66,30.11,29.72,11,6,21,0.01
2013-12-6,33.4,30.0,26.4,30.8,26.6,20.8,98,87,78,30.47,30.06,10,6,19,0.05
2013-12-7,28.2,25.3,22.7,22.7,19.9,16.9,89,80,73,30.51,30.32,10,5,17,0.00
2013-12-8,51.9,34.4,25.3,41.4,30.4,22.6,95,86,67,30.31,30.01,1,0,3,0.00
2013-12-9,37.6,34.8,30.9,37.6,34.7,29.9,100,100,96,30.40,30.05,7,2,12,0.08
2013-12-10,43.9,31.1,25.4,31.3,24.8,20.4,99,79,45,30.53,30.35,8,2,19,0.00
2013-12-11,55.6,38.3,25.6,34.6,28.6,22.9,92,71,35,30.56,30.33,5,0,6,0.00
2013-12-12,51.9,39.0,30.9,37.0,30.9,25.8,86,73,50,30.60,30.29,4,0,7,0.00
2013-12-13,50.1,44.7,41.3,50.1,41.6,32.8,100,89,71,30.29,29.88,6,1,9,0.15
2013-12-14,48.0,43.3,38.5,48.0,38.7,29.5,100,85,69,30.34,29.86,11,3,25,0.01
2013-12-15,59.3,41.3,31.3,36.4,30.8,26.3,85,69,33,30.40,30.26,1,0,6,0.00
2013-12-16,67.4,48.4,35.5,39.1,32.9,29.3,81,58,27,30.30,30.16,5,1,10,0.00
2013-12-17,72.3,51.2,39.9,42.9,37.2,31.3,84,63,27,30.31,30.18,4,1,9,0.00
2013-12-18,68.6,54.6,43.3,54.7,47.0,37.8,100,77,51,30.27,30.00,6,2,11,0.00
2013-12-19,72.5,62.8,54.1,61.5,57.0,49.5,96,82,60,30.00,29.74,10,4,22,0.00
2013-12-20,71.1,66.6,62.9,66.3,62.9,61.2,96,88,76,29.79,29.57,7,3,12,0.00
2013-12-21,69.3,50.8,42.3,65.4,47.2,38.6,100,88,53,29.82,29.54,6,1,11,0.33
2013-12-22,51.0,42.7,35.5,40.0,35.8,28.0,94,77,55,30.38,29.83,8,2,25,0.00
2013-12-23,55.9,37.2,29.0,33.9,28.3,25.3,91,73,34,30.55,30.37,4,0,7,0.00
2013-12-24,58.4,40.6,27.5,38.4,28.9,24.5,99,68,28,30.55,30.24,4,1,12,0.00
2013-12-25,57.0,46.0,34.7,47.8,41.1,33.4,99,84,67,30.39,30.22,6,1,11,0.00
2013-12-26,53.5,43.1,36.0,42.6,36.8,32.8,92,79,59,30.44,30.31,5,1,9,0.00
2013-12-27,54.2,46.0,39.8,43.7,41.1,36.8,99,84,57,30.44,30.31,4,0,6,0.02
2013-12-28,60.9,46.7,36.6,44.3,40.4,35.3,99,81,51,30.32,29.99,4,1,7,0.00
2013-12-29,61.0,46.4,31.0,50.3,42.5,28.9,99,87,66,30.27,29.94,10,3,19,0.00
2013-12-30,40.5,34.5,30.4,30.1,26.5,22.2,93,73,56,30.41,30.23,7,2,16,0.00
2013-12-31,56.2,39.8,31.0,32.4,29.2,24.8,89,69,36,30.48,30.24,1,0,2,0.00
2014-1-1,65.3,49.4,36.9,52.2,41.1,28.3,94,74,60,30.23,29.97,8,3,17,0.00
2014-1-2,49.9,38.5,27.5,48.4,27.1,21.8,95,65,36,30.47,30.09,14,5,19,0.01